VLLB

Luang Prabang International Airport

Airport
ICAO code
VLLB
IATA Code
LPQ
Summary
ICAO Region
APAC
ICAO Territory
Location

Luang Prabang, Louangphrabang

Serving
Luang Prabang
Elevation
955 ft
Coordinates
19° 53' 50" N , 102° 9' 39" E
KCC
Metar
VLLB 160600Z 27004KT CAVOK 34/20 Q1010 NOSIG

International airport serving Luang Prabang, Laos.

Climatology

Tropical savannah climate (Köppen climate classification Aw)

Airport map

Aerial View

SKYbrary Partners:

Safety knowledge contributed by: